JBU1046 KDCA-KCLE
Flight info
| Callsign | JBU1046 |
|---|---|
| Flight time | N/A |
| Altitude | 38000 |
| Route | HORTO4 JERES J211 JST UPPRR TRYBE4 |
| Aircraft | A321/M-SDE3FGHIRWY/LB1 |
Departure
| Time | 2026-04-30 22:19 |
|---|---|
| Airport | Ronald Reagan Washington National Airport (KDCA) |
Arrival
| Time | N/A |
|---|---|
| Airport | Cleveland Hopkins International Airport (KCLE) |
| Time | Latitude | Longitude | Altitude | Speed | Heading |
|---|---|---|---|---|---|
| 2026-04-30 21:53 | 38.85369 | -77.04108 | 24 ft | 0 kts | 327° |
| 2026-04-30 22:05 | 38.85368 | -77.04108 | -4 ft | 1 kts | 327° |
| 2026-04-30 22:05 | 38.85356 | -77.04097 | 24 ft | 3 kts | 327° |
| 2026-04-30 22:06 | 38.85340 | -77.04084 | 25 ft | 3 kts | 331° |
| 2026-04-30 22:06 | 38.85320 | -77.04092 | 24 ft | 1 kts | 72° |
| 2026-04-30 22:06 | 38.85322 | -77.04083 | 26 ft | 2 kts | 72° |
| 2026-04-30 22:07 | 38.85324 | -77.04076 | 24 ft | 0 kts | 72° |
| 2026-04-30 22:10 | 38.85324 | -77.04075 | 24 ft | 0 kts | 72° |
| 2026-04-30 22:10 | 38.85327 | -77.04062 | 25 ft | 3 kts | 72° |
| 2026-04-30 22:10 | 38.85337 | -77.04022 | 24 ft | 6 kts | 72° |
| 2026-04-30 22:10 | 38.85341 | -77.03964 | 24 ft | 7 kts | 91° |
| 2026-04-30 22:11 | 38.85241 | -77.03925 | 24 ft | 10 kts | 175° |
| 2026-04-30 22:11 | 38.85166 | -77.03918 | 24 ft | 12 kts | 175° |
| 2026-04-30 22:11 | 38.85080 | -77.03909 | 24 ft | 13 kts | 175° |
| 2026-04-30 22:12 | 38.84983 | -77.03900 | 24 ft | 15 kts | 175° |
| 2026-04-30 22:12 | 38.84875 | -77.03889 | 24 ft | 16 kts | 175° |
| 2026-04-30 22:12 | 38.84760 | -77.03877 | 24 ft | 17 kts | 175° |
| 2026-04-30 22:12 | 38.84639 | -77.03865 | 25 ft | 18 kts | 176° |
| 2026-04-30 22:13 | 38.84519 | -77.03853 | 24 ft | 15 kts | 175° |
| 2026-04-30 22:13 | 38.84423 | -77.03844 | 25 ft | 13 kts | 176° |
| 2026-04-30 22:13 | 38.84334 | -77.03835 | 25 ft | 12 kts | 175° |
| 2026-04-30 22:13 | 38.84257 | -77.03825 | 25 ft | 8 kts | 166° |
| 2026-04-30 22:14 | 38.84225 | -77.03789 | 24 ft | 0 kts | 122° |
| 2026-04-30 22:17 | 38.84224 | -77.03789 | 24 ft | 1 kts | 122° |
| 2026-04-30 22:18 | 38.84216 | -77.03771 | 26 ft | 4 kts | 122° |
| 2026-04-30 22:18 | 38.84181 | -77.03692 | 24 ft | 1 kts | 82° |
| 2026-04-30 22:19 | 38.84382 | -77.03699 | 24 ft | 62 kts | 354° |
| 2026-04-30 22:19 | 38.85072 | -77.03770 | 26 ft | 132 kts | 355° |
| 2026-04-30 22:19 | 38.87146 | -77.04095 | 1138 ft | 152 kts | 334° |
| 2026-04-30 22:20 | 38.88071 | -77.04844 | 1554 ft | 168 kts | 320° |
| 2026-04-30 22:20 | 38.90066 | -77.07007 | 2326 ft | 201 kts | 317° |
| 2026-04-30 22:20 | 38.90953 | -77.08492 | 2809 ft | 221 kts | 301° |
| 2026-04-30 22:21 | 38.91698 | -77.10314 | 3325 ft | 238 kts | 304° |
| 2026-04-30 22:21 | 38.92924 | -77.11763 | 4061 ft | 244 kts | 326° |
| 2026-04-30 22:21 | 38.94373 | -77.12923 | 4958 ft | 247 kts | 327° |
| 2026-04-30 22:21 | 38.95831 | -77.14122 | 5790 ft | 251 kts | 317° |
| 2026-04-30 22:22 | 38.96846 | -77.15927 | 6561 ft | 254 kts | 289° |
| 2026-04-30 22:22 | 38.97234 | -77.18146 | 7419 ft | 256 kts | 281° |
| 2026-04-30 22:22 | 38.97576 | -77.20400 | 8275 ft | 258 kts | 281° |
| 2026-04-30 22:22 | 38.97927 | -77.22686 | 9134 ft | 262 kts | 281° |
| 2026-04-30 22:23 | 38.98164 | -77.24211 | 9706 ft | 263 kts | 281° |
| 2026-04-30 22:23 | 38.98525 | -77.26536 | 10356 ft | 273 kts | 281° |
| 2026-04-30 22:23 | 38.98935 | -77.29024 | 10598 ft | 296 kts | 285° |
| 2026-04-30 22:23 | 38.99749 | -77.31528 | 11084 ft | 310 kts | 298° |
| 2026-04-30 22:24 | 39.01035 | -77.33783 | 11807 ft | 317 kts | 310° |
| 2026-04-30 22:24 | 39.02660 | -77.35738 | 12586 ft | 321 kts | 314° |
| 2026-04-30 22:24 | 39.04316 | -77.37663 | 13366 ft | 323 kts | 313° |
| 2026-04-30 22:24 | 39.05990 | -77.39610 | 14075 ft | 326 kts | 313° |
| 2026-04-30 22:25 | 39.07678 | -77.41573 | 14781 ft | 328 kts | 313° |
| 2026-04-30 22:25 | 39.09392 | -77.43539 | 15440 ft | 333 kts | 315° |
| 2026-04-30 22:25 | 39.11382 | -77.45154 | 16105 ft | 345 kts | 328° |
| 2026-04-30 22:25 | 39.13704 | -77.46130 | 16784 ft | 360 kts | 342° |
| 2026-04-30 22:26 | 39.18864 | -77.46277 | 18016 ft | 377 kts | 353° |
| 2026-04-30 22:26 | 39.21504 | -77.46219 | 18582 ft | 381 kts | 353° |
| 2026-04-30 22:26 | 39.24168 | -77.46167 | 19131 ft | 384 kts | 353° |
| 2026-04-30 22:27 | 39.26848 | -77.46122 | 19688 ft | 388 kts | 353° |
| 2026-04-30 22:27 | 39.29556 | -77.46078 | 20261 ft | 391 kts | 353° |
| 2026-04-30 22:27 | 39.35045 | -77.45989 | 21386 ft | 397 kts | 352° |
| 2026-04-30 22:28 | 39.40623 | -77.45900 | 22513 ft | 404 kts | 352° |
| 2026-04-30 22:28 | 39.43449 | -77.45856 | 23058 ft | 408 kts | 352° |
| 2026-04-30 22:29 | 39.52057 | -77.45716 | 24419 ft | 416 kts | 352° |
| 2026-04-30 22:29 | 39.54960 | -77.45672 | 24860 ft | 418 kts | 352° |
| 2026-04-30 22:30 | 39.65017 | -77.50686 | 26516 ft | 381 kts | 306° |
| 2026-04-30 22:31 | 39.68620 | -77.59614 | 27804 ft | 375 kts | 288° |
| 2026-04-30 22:32 | 39.71502 | -77.69048 | 29128 ft | 379 kts | 288° |
| 2026-04-30 22:32 | 39.73448 | -77.75442 | 29909 ft | 383 kts | 288° |
| 2026-04-30 22:33 | 39.76401 | -77.85174 | 30829 ft | 390 kts | 288° |
| 2026-04-30 22:33 | 39.78402 | -77.91771 | 31411 ft | 395 kts | 288° |
| 2026-04-30 22:34 | 39.81408 | -78.01746 | 32621 ft | 394 kts | 288° |
| 2026-04-30 22:35 | 39.83462 | -78.08351 | 33428 ft | 396 kts | 293° |
| 2026-04-30 22:36 | 39.90382 | -78.19771 | 34697 ft | 406 kts | 305° |
| 2026-04-30 22:36 | 39.92218 | -78.22573 | 34946 ft | 407 kts | 305° |
| 2026-04-30 22:37 | 39.97727 | -78.31011 | 35851 ft | 407 kts | 305° |
| 2026-04-30 22:37 | 39.99559 | -78.33823 | 36129 ft | 408 kts | 305° |
| 2026-04-30 22:37 | 40.03237 | -78.39463 | 36659 ft | 408 kts | 305° |
| 2026-04-30 22:38 | 40.06919 | -78.45118 | 37190 ft | 409 kts | 305° |
| 2026-04-30 22:38 | 40.10603 | -78.50789 | 37688 ft | 410 kts | 305° |
| 2026-04-30 22:39 | 40.12448 | -78.53629 | 37909 ft | 410 kts | 305° |
| 2026-04-30 22:40 | 40.23493 | -78.70688 | 37997 ft | 409 kts | 304° |
| 2026-04-30 22:41 | 40.32629 | -78.84849 | 37984 ft | 408 kts | 306° |
| 2026-04-30 22:43 | 40.44489 | -79.01069 | 38005 ft | 412 kts | 308° |
| 2026-04-30 22:44 | 40.52383 | -79.12043 | 38003 ft | 414 kts | 308° |
| 2026-04-30 22:45 | 40.60355 | -79.23161 | 37447 ft | 428 kts | 308° |
| 2026-04-30 22:45 | 40.64427 | -79.28854 | 36713 ft | 425 kts | 308° |
| 2026-04-30 22:46 | 40.68465 | -79.34485 | 35970 ft | 420 kts | 308° |
| 2026-04-30 22:47 | 40.76305 | -79.45470 | 34583 ft | 405 kts | 308° |
| 2026-04-30 22:47 | 40.80120 | -79.50839 | 34078 ft | 398 kts | 308° |
| 2026-04-30 22:48 | 40.83882 | -79.56140 | 33545 ft | 393 kts | 307° |
| 2026-04-30 22:49 | 40.89411 | -79.63959 | 32790 ft | 385 kts | 307° |
| 2026-04-30 22:49 | 40.94859 | -79.71663 | 32021 ft | 378 kts | 307° |
| 2026-04-30 22:50 | 41.01922 | -79.81683 | 30835 ft | 365 kts | 307° |
| 2026-04-30 22:51 | 41.05340 | -79.86544 | 30162 ft | 355 kts | 307° |
| 2026-04-30 22:51 | 41.08636 | -79.91250 | 29438 ft | 343 kts | 307° |
| 2026-04-30 22:52 | 41.10250 | -79.93563 | 29065 ft | 338 kts | 305° |
| 2026-04-30 22:52 | 41.12536 | -79.98798 | 28498 ft | 342 kts | 292° |
| 2026-04-30 22:53 | 41.14669 | -80.04745 | 27749 ft | 364 kts | 292° |
| 2026-04-30 22:53 | 41.16843 | -80.10801 | 27008 ft | 362 kts | 292° |
| 2026-04-30 22:53 | 41.17924 | -80.13809 | 26569 ft | 360 kts | 292° |
| 2026-04-30 22:54 | 41.20072 | -80.19757 | 25710 ft | 353 kts | 293° |
| 2026-04-30 22:55 | 41.23301 | -80.28426 | 24398 ft | 345 kts | 294° |
| 2026-04-30 22:55 | 41.25409 | -80.34107 | 23489 ft | 341 kts | 294° |
| 2026-04-30 22:56 | 41.27470 | -80.39695 | 22537 ft | 336 kts | 294° |
| 2026-04-30 22:56 | 41.30520 | -80.48001 | 21155 ft | 330 kts | 294° |
| 2026-04-30 22:57 | 41.32520 | -80.53465 | 20251 ft | 327 kts | 294° |
| 2026-04-30 22:57 | 41.34495 | -80.58863 | 20039 ft | 324 kts | 294° |
| 2026-04-30 22:58 | 41.36468 | -80.64270 | 20017 ft | 325 kts | 294° |
| 2026-04-30 22:59 | 41.39419 | -80.72382 | 20013 ft | 325 kts | 292° |
| 2026-04-30 22:59 | 41.40950 | -80.81124 | 18294 ft | 312 kts | 281° |